createdAt,value
2023-02-09T00:01:16.410Z,38.33
2023-02-09T00:03:43.653Z,43.47
2023-02-09T00:06:12.544Z,40.58
2023-02-09T00:08:39.773Z,38.17
2023-02-09T00:11:11.403Z,41.40
2023-02-09T00:13:38.692Z,40.85
2023-02-09T00:16:06.178Z,43.17
2023-02-09T00:18:33.812Z,42.95
2023-02-09T00:21:00.924Z,44.40
2023-02-09T00:23:28.692Z,43.03
2023-02-09T00:25:55.901Z,42.22
2023-02-09T00:28:23.116Z,40.08
2023-02-09T00:30:50.374Z,42.83
2023-02-09T00:33:17.545Z,36.70
2023-02-09T00:35:44.839Z,43.50
2023-02-09T00:38:12.329Z,39.22
2023-02-09T00:40:39.714Z,41.47
2023-02-09T00:43:07.001Z,42.28
2023-02-09T00:45:34.203Z,45.03
2023-02-09T00:48:01.432Z,41.45
2023-02-09T00:50:28.746Z,43.85
2023-02-09T00:52:55.973Z,43.53
2023-02-09T00:55:23.257Z,42.63
2023-02-09T00:57:50.386Z,43.83
2023-02-09T01:00:17.715Z,44.65
2023-02-09T01:02:44.874Z,38.63
2023-02-09T01:05:12.002Z,43.47
2023-02-09T01:07:39.153Z,43.58
2023-02-09T01:10:06.511Z,44.42
2023-02-09T01:12:33.840Z,39.83
2023-02-09T01:15:02.138Z,38.03
2023-02-09T01:17:29.546Z,42.75
2023-02-09T01:19:56.850Z,47.40
2023-02-09T01:22:24.007Z,40.97
2023-02-09T01:24:51.169Z,40.00
2023-02-09T01:27:18.621Z,45.05
2023-02-09T01:29:45.961Z,40.95
2023-02-09T01:32:13.153Z,42.17
2023-02-09T01:34:40.342Z,40.67
2023-02-09T01:37:07.654Z,41.72
2023-02-09T01:39:34.818Z,41.37
2023-02-09T01:42:03.573Z,40.97
2023-02-09T01:44:30.732Z,41.72
2023-02-09T01:46:57.925Z,43.35
2023-02-09T01:49:28.749Z,44.63
2023-02-09T01:52:00.551Z,40.25
2023-02-09T01:54:42.133Z,41.33
2023-02-09T01:57:11.468Z,43.45
2023-02-09T01:59:39.480Z,39.03
2023-02-09T02:02:07.024Z,47.80
2023-02-09T02:04:34.656Z,42.13
2023-02-09T02:07:07.884Z,41.45
2023-02-09T02:09:35.097Z,42.55
2023-02-09T02:12:02.222Z,43.08
2023-02-09T02:14:33.688Z,42.05
2023-02-09T02:17:10.731Z,40.97
2023-02-09T02:20:04.849Z,43.40
2023-02-09T02:22:36.575Z,43.58
2023-02-09T02:25:03.714Z,39.30
2023-02-09T02:27:31.626Z,45.50
2023-02-09T02:30:06.805Z,44.92
2023-02-09T02:32:54.298Z,42.55
2023-02-09T02:35:36.628Z,38.67
2023-02-09T02:38:06.446Z,42.13
2023-02-09T02:40:36.688Z,45.83
2023-02-09T02:43:09.525Z,41.05
2023-02-09T02:45:52.218Z,45.42
2023-02-09T02:48:22.047Z,44.33
2023-02-09T02:50:51.340Z,44.75
2023-02-09T02:53:18.528Z,42.03
2023-02-09T02:55:45.796Z,43.28
2023-02-09T02:58:12.967Z,46.95
2023-02-09T03:00:45.075Z,44.63
2023-02-09T03:03:14.111Z,42.88
2023-02-09T03:05:41.395Z,42.40
2023-02-09T03:08:08.606Z,43.53
2023-02-09T03:10:36.783Z,41.55
2023-02-09T03:13:16.212Z,39.38
2023-02-09T03:15:46.276Z,43.63
2023-02-09T03:18:31.938Z,44.35
2023-02-09T03:21:05.448Z,45.67
2023-02-09T03:23:33.886Z,45.05
2023-02-09T03:26:02.536Z,46.20
2023-02-09T03:28:30.499Z,41.67
2023-02-09T03:30:58.114Z,45.88
2023-02-09T03:33:26.006Z,45.15
2023-02-09T03:35:54.399Z,43.42
2023-02-09T03:38:21.541Z,42.90
2023-02-09T03:40:48.738Z,45.97
2023-02-09T03:43:15.872Z,43.30
2023-02-09T03:45:43.044Z,44.00
2023-02-09T03:48:10.184Z,47.78
2023-02-09T03:50:37.481Z,43.00
2023-02-09T03:53:07.802Z,47.15
2023-02-09T03:55:35.789Z,43.78
2023-02-09T03:58:02.970Z,46.00
2023-02-09T04:00:30.179Z,45.77
2023-02-09T04:02:59.354Z,45.03
2023-02-09T04:05:26.513Z,45.67
2023-02-09T04:07:53.648Z,46.17
2023-02-09T04:10:20.887Z,43.78
2023-02-09T04:12:48.231Z,44.13
2023-02-09T04:15:15.413Z,46.88
2023-02-09T04:17:42.591Z,47.25
2023-02-09T04:20:09.887Z,47.55
2023-02-09T04:22:37.027Z,46.83
2023-02-09T04:25:04.226Z,49.22
2023-02-09T04:27:31.565Z,42.75
2023-02-09T04:29:58.708Z,48.88
2023-02-09T04:32:25.859Z,46.85
2023-02-09T04:34:53.017Z,46.85
2023-02-09T04:37:20.164Z,49.13
2023-02-09T04:39:47.314Z,49.72
2023-02-09T04:42:14.466Z,46.20
2023-02-09T04:44:41.647Z,49.75
2023-02-09T04:47:08.911Z,49.20
2023-02-09T04:49:36.099Z,49.53
2023-02-09T04:52:03.228Z,46.58
2023-02-09T04:54:30.374Z,44.58
2023-02-09T04:57:16.464Z,47.38
2023-02-09T04:59:44.977Z,47.03
2023-02-09T05:02:12.247Z,44.73
2023-02-09T05:04:39.407Z,45.85
2023-02-09T05:07:06.608Z,50.90
2023-02-09T05:09:33.775Z,48.78
2023-02-09T05:12:01.171Z,43.90
2023-02-09T05:14:28.399Z,49.05
2023-02-09T05:16:55.608Z,50.15
2023-02-09T05:19:22.787Z,46.05
2023-02-09T05:21:49.943Z,49.92
2023-02-09T05:24:17.096Z,48.38
2023-02-09T05:26:44.224Z,48.70
2023-02-09T05:29:11.475Z,49.97
2023-02-09T05:31:38.873Z,49.92
2023-02-09T05:34:06.089Z,48.25
2023-02-09T05:36:33.257Z,45.83
2023-02-09T05:39:00.378Z,50.22
2023-02-09T05:41:47.060Z,47.65
2023-02-09T05:44:14.218Z,48.80
2023-02-09T05:46:41.463Z,46.90
2023-02-09T05:49:08.658Z,48.05
2023-02-09T05:51:36.903Z,48.28
2023-02-09T05:54:04.210Z,50.78
2023-02-09T05:56:31.410Z,47.50
2023-02-09T05:58:58.666Z,51.03
2023-02-09T06:01:25.823Z,50.58
2023-02-09T06:03:53.031Z,48.40
2023-02-09T06:06:20.193Z,49.97
2023-02-09T06:08:47.386Z,51.47
2023-02-09T06:11:15.121Z,50.47
2023-02-09T06:13:42.250Z,48.25
2023-02-09T06:16:09.500Z,48.35
2023-02-09T06:18:38.193Z,46.28
2023-02-09T06:21:05.791Z,45.72
2023-02-09T06:23:35.143Z,47.30
2023-02-09T06:26:06.236Z,48.60
2023-02-09T06:28:33.455Z,46.75
2023-02-09T06:31:00.896Z,48.60
2023-02-09T06:33:28.080Z,46.58
2023-02-09T06:35:55.232Z,46.72
2023-02-09T06:38:22.456Z,44.63
2023-02-09T06:40:49.599Z,48.42
2023-02-09T06:43:16.836Z,50.80
2023-02-09T06:45:43.673Z,49.83
2023-02-09T06:48:10.513Z,43.67
2023-02-09T06:50:38.135Z,48.00
2023-02-09T06:53:05.115Z,46.55
2023-02-09T06:55:32.245Z,47.35
2023-02-09T06:57:59.162Z,52.78
2023-02-09T07:00:26.092Z,45.20
2023-02-09T07:02:53.503Z,51.20
2023-02-09T07:05:20.396Z,53.08
2023-02-09T07:07:47.224Z,48.60
2023-02-09T07:10:14.866Z,44.35
2023-02-09T07:12:43.419Z,49.92
2023-02-09T07:15:10.699Z,47.55
2023-02-09T07:17:37.506Z,45.65
2023-02-09T07:20:05.094Z,48.33
2023-02-09T07:22:32.267Z,44.13
2023-02-09T07:24:59.437Z,46.22
2023-02-09T07:27:26.663Z,43.50
2023-02-09T07:29:53.828Z,48.53
2023-02-09T07:32:22.823Z,47.75
2023-02-09T07:34:50.190Z,44.78
2023-02-09T07:37:17.382Z,44.67
2023-02-09T07:39:44.786Z,44.72
2023-02-09T07:42:12.157Z,46.20
2023-02-09T07:44:40.353Z,41.90
2023-02-09T07:47:07.524Z,45.95
2023-02-09T07:49:37.642Z,41.03
2023-02-09T07:52:05.325Z,41.67
2023-02-09T07:54:32.561Z,41.90
2023-02-09T07:56:59.729Z,45.03
2023-02-09T07:59:26.944Z,43.67
2023-02-09T08:01:54.172Z,45.57
2023-02-09T08:04:22.013Z,43.85
2023-02-09T08:06:50.272Z,43.17
2023-02-09T08:09:17.473Z,40.58
2023-02-09T08:11:46.704Z,41.15
2023-02-09T08:14:15.002Z,40.13
2023-02-09T08:16:42.264Z,36.53
2023-02-09T08:19:11.160Z,39.95
2023-02-09T08:21:39.188Z,39.92
2023-02-09T08:24:06.831Z,39.13
2023-02-09T08:26:34.023Z,34.83
2023-02-09T08:29:01.210Z,37.53
2023-02-09T08:31:28.421Z,34.30
2023-02-09T08:33:55.611Z,35.00
2023-02-09T08:36:22.848Z,37.03
2023-02-09T08:38:50.326Z,36.40
2023-02-09T08:41:17.659Z,30.88
2023-02-09T08:43:51.606Z,35.05
2023-02-09T08:46:19.028Z,32.95
2023-02-09T08:48:46.759Z,31.10
2023-02-09T08:51:14.243Z,40.38
2023-02-09T08:53:41.715Z,33.45
2023-02-09T08:56:08.930Z,39.75
2023-02-09T08:58:36.598Z,36.40
2023-02-09T09:01:04.176Z,42.63
2023-02-09T09:03:33.272Z,35.17
2023-02-09T09:06:06.444Z,47.10
2023-02-09T09:08:33.965Z,32.05
2023-02-09T09:11:01.309Z,39.13
2023-02-09T09:13:28.601Z,33.33
2023-02-09T09:15:55.887Z,26.83
2023-02-09T09:18:24.174Z,28.75
2023-02-09T09:20:51.418Z,29.52
2023-02-09T09:23:18.684Z,30.00
2023-02-09T09:25:46.124Z,27.67
2023-02-09T09:28:13.576Z,28.15
2023-02-09T09:30:40.742Z,28.17
2023-02-09T09:33:07.955Z,28.45
2023-02-09T09:35:35.096Z,28.80
2023-02-09T09:38:02.325Z,27.45
2023-02-09T09:40:33.225Z,25.03
2023-02-09T09:43:03.024Z,26.73
2023-02-09T09:45:30.627Z,27.10
2023-02-09T09:47:57.793Z,27.88
2023-02-09T09:50:37.277Z,28.02
2023-02-09T09:53:06.337Z,26.50
2023-02-09T09:55:33.489Z,26.30
2023-02-09T09:58:01.560Z,25.38
2023-02-09T10:00:36.382Z,25.80
2023-02-09T10:03:03.695Z,27.88
2023-02-09T10:05:31.956Z,24.73
2023-02-09T10:08:00.178Z,25.58
2023-02-09T10:10:39.204Z,24.40
2023-02-09T10:13:19.053Z,25.13
2023-02-09T10:15:48.019Z,22.95
2023-02-09T10:18:15.860Z,24.95
2023-02-09T10:20:44.407Z,22.85
2023-02-09T10:23:18.518Z,23.20
2023-02-09T10:25:50.006Z,26.48
2023-02-09T10:28:23.890Z,24.38
2023-02-09T10:30:57.137Z,28.00
2023-02-09T10:33:24.357Z,24.05
2023-02-09T10:35:52.535Z,20.95
2023-02-09T10:38:20.376Z,21.40
2023-02-09T10:40:47.660Z,22.35
2023-02-09T10:43:28.479Z,22.75
2023-02-09T10:45:56.760Z,22.00
2023-02-09T10:48:24.624Z,19.88
2023-02-09T10:51:01.576Z,25.42
2023-02-09T10:53:35.859Z,22.27
2023-02-09T10:56:22.628Z,21.80
2023-02-09T10:58:53.607Z,19.80
2023-02-09T11:01:22.893Z,22.55
2023-02-09T11:04:19.713Z,19.73
2023-02-09T11:06:52.923Z,22.67
2023-02-09T11:09:21.097Z,21.67
2023-02-09T11:11:48.249Z,19.92
2023-02-09T11:14:18.469Z,23.08
2023-02-09T11:17:11.974Z,23.23
2023-02-09T11:19:49.506Z,20.48
2023-02-09T11:22:31.965Z,22.13
2023-02-09T11:25:18.178Z,20.52
2023-02-09T11:27:53.239Z,19.35
2023-02-09T11:30:39.432Z,20.98
2023-02-09T11:33:25.112Z,20.67
2023-02-09T11:35:55.169Z,19.50
2023-02-09T11:38:26.195Z,21.70
2023-02-09T11:40:54.818Z,23.63
2023-02-09T11:43:25.663Z,19.98
2023-02-09T11:45:53.316Z,19.42
2023-02-09T11:48:21.466Z,19.20
2023-02-09T11:50:54.721Z,22.27
2023-02-09T11:53:30.950Z,20.75
2023-02-09T11:56:01.458Z,20.67
2023-02-09T11:58:31.605Z,20.33
2023-02-09T12:01:14.717Z,20.17
2023-02-09T12:03:43.729Z,20.83
2023-02-09T12:06:10.990Z,22.17
2023-02-09T12:08:46.167Z,21.37
2023-02-09T12:11:16.127Z,20.58
2023-02-09T12:13:52.400Z,20.60
2023-02-09T12:16:23.191Z,22.40
2023-02-09T12:18:50.389Z,20.70
2023-02-09T12:21:26.805Z,17.43
2023-02-09T12:23:53.988Z,24.63
2023-02-09T12:26:33.353Z,21.17
2023-02-09T12:29:03.750Z,18.58
2023-02-09T12:31:31.687Z,18.33
2023-02-09T12:33:58.940Z,19.55
2023-02-09T12:36:34.950Z,21.08
2023-02-09T12:39:23.824Z,19.33
2023-02-09T12:41:51.246Z,20.17
2023-02-09T12:44:21.433Z,20.55
2023-02-09T12:46:56.754Z,19.38
2023-02-09T12:49:31.018Z,20.85
2023-02-09T12:52:01.372Z,21.15
2023-02-09T12:54:39.460Z,22.02
2023-02-09T12:57:15.737Z,20.17
2023-02-09T12:59:52.100Z,20.05
2023-02-09T13:02:37.779Z,20.00
2023-02-09T13:05:06.389Z,18.13
2023-02-09T13:07:33.541Z,21.73
2023-02-09T13:10:21.561Z,22.65
2023-02-09T13:12:59.515Z,21.35
2023-02-09T13:15:27.427Z,24.67
2023-02-09T13:18:00.623Z,21.13
2023-02-09T13:20:30.612Z,20.55
2023-02-09T13:23:16.473Z,18.50
2023-02-09T13:25:44.381Z,19.83
2023-02-09T13:28:18.732Z,18.53
2023-02-09T13:30:46.333Z,20.33
2023-02-09T13:33:25.750Z,20.77
2023-02-09T13:35:55.702Z,20.15
2023-02-09T13:38:23.151Z,21.25
2023-02-09T13:40:50.599Z,18.52
2023-02-09T13:43:25.137Z,20.80
2023-02-09T13:45:53.178Z,18.30
2023-02-09T13:48:24.404Z,21.08
2023-02-09T13:50:52.173Z,48.35
2023-02-09T13:53:19.860Z,40.35
2023-02-09T13:55:47.669Z,47.70
2023-02-09T13:58:16.434Z,177.70
2023-02-09T14:00:44.817Z,134.70
2023-02-09T14:03:24.974Z,42.53
2023-02-09T14:05:57.789Z,43.95
2023-02-09T14:08:24.978Z,30.02
2023-02-09T14:11:15.250Z,24.33
2023-02-09T14:13:43.482Z,26.05
2023-02-09T14:16:12.593Z,28.88
2023-02-09T14:19:12.445Z,21.85
2023-02-09T14:21:40.215Z,21.98
2023-02-09T14:24:08.623Z,15.35
2023-02-09T14:26:36.506Z,21.23
2023-02-09T14:29:18.264Z,18.92
2023-02-09T14:31:49.658Z,18.67
2023-02-09T14:34:26.084Z,17.95
2023-02-09T14:36:56.147Z,16.52
2023-02-09T14:39:23.497Z,17.45
2023-02-09T14:42:09.130Z,19.15
2023-02-09T14:44:44.575Z,16.88
2023-02-09T14:47:27.014Z,17.90
2023-02-09T14:49:54.141Z,17.92
2023-02-09T14:52:23.735Z,18.77
2023-02-09T14:54:51.304Z,19.33
2023-02-09T14:57:20.215Z,17.63
2023-02-09T14:59:47.377Z,15.95
2023-02-09T15:02:19.285Z,17.55
2023-02-09T15:04:46.531Z,18.25
2023-02-09T15:07:15.463Z,18.73
2023-02-09T15:09:43.004Z,17.42
2023-02-09T15:12:11.114Z,20.00
2023-02-09T15:14:47.414Z,17.00
2023-02-09T15:17:18.660Z,17.02
2023-02-09T15:19:46.110Z,18.45
2023-02-09T15:22:15.039Z,17.95
2023-02-09T15:24:45.990Z,19.47
2023-02-09T15:27:22.419Z,16.30
2023-02-09T15:29:49.558Z,20.90
2023-02-09T15:32:17.804Z,18.77
2023-02-09T15:34:45.001Z,18.02
2023-02-09T15:37:20.221Z,15.65
2023-02-09T15:39:48.396Z,18.02
2023-02-09T15:42:34.646Z,18.13
2023-02-09T15:45:32.590Z,19.20
2023-02-09T15:47:59.896Z,20.50
2023-02-09T15:50:28.523Z,18.15
2023-02-09T15:52:57.583Z,19.02
2023-02-09T15:55:24.966Z,20.38
2023-02-09T15:57:52.403Z,18.20
2023-02-09T16:00:24.862Z,18.27
2023-02-09T16:02:55.750Z,19.42
2023-02-09T16:05:22.924Z,18.55
2023-02-09T16:07:50.185Z,18.17
2023-02-09T16:10:20.102Z,18.58
2023-02-09T16:12:47.250Z,17.10
2023-02-09T16:15:15.481Z,19.92
2023-02-09T16:17:42.675Z,17.25
2023-02-09T16:20:10.162Z,16.45
2023-02-09T16:22:37.441Z,18.10
2023-02-09T16:25:04.713Z,17.30
2023-02-09T16:27:32.098Z,17.58
2023-02-09T16:29:59.412Z,18.73
2023-02-09T16:32:28.447Z,20.17
2023-02-09T16:35:04.555Z,21.40
2023-02-09T16:37:38.213Z,16.05
2023-02-09T16:40:15.956Z,19.50
2023-02-09T16:42:43.415Z,17.40
2023-02-09T16:45:13.949Z,16.63
2023-02-09T16:47:45.500Z,18.60
2023-02-09T16:50:16.672Z,20.00
2023-02-09T16:52:43.980Z,17.98
2023-02-09T16:55:13.234Z,20.07
2023-02-09T16:57:40.512Z,14.73
2023-02-09T17:00:07.955Z,16.73
2023-02-09T17:02:35.222Z,16.88
2023-02-09T17:05:02.982Z,15.60
2023-02-09T17:07:37.508Z,16.30
2023-02-09T17:10:16.611Z,15.77
2023-02-09T17:12:43.881Z,17.98
2023-02-09T17:15:28.391Z,17.63
2023-02-09T17:17:57.385Z,16.63
2023-02-09T17:20:25.086Z,17.13
2023-02-09T17:22:53.013Z,15.95
2023-02-09T17:25:20.940Z,16.10
2023-02-09T17:27:48.109Z,15.32
2023-02-09T17:30:18.780Z,17.50
2023-02-09T17:32:46.970Z,18.45
2023-02-09T17:35:15.162Z,16.58
2023-02-09T17:37:42.585Z,16.55
2023-02-09T17:40:13.530Z,19.80
2023-02-09T17:42:40.675Z,19.00
2023-02-09T17:45:14.810Z,16.83
2023-02-09T17:47:41.936Z,14.02
2023-02-09T17:50:09.309Z,15.60
2023-02-09T17:52:36.430Z,15.93
2023-02-09T17:55:03.599Z,16.10
2023-02-09T17:57:30.765Z,15.40
2023-02-09T17:59:57.950Z,17.93
2023-02-09T18:02:25.103Z,20.90
2023-02-09T18:04:52.294Z,17.05
2023-02-09T18:07:20.863Z,17.02
2023-02-09T18:09:48.092Z,14.73
2023-02-09T18:12:22.369Z,17.00
2023-02-09T18:14:49.513Z,18.10
2023-02-09T18:17:16.744Z,16.40
2023-02-09T18:19:43.927Z,23.10
2023-02-09T18:22:12.812Z,17.48
2023-02-09T18:24:40.519Z,22.83
2023-02-09T18:27:08.734Z,15.10
2023-02-09T18:29:35.941Z,15.75
2023-02-09T18:32:03.196Z,17.17
2023-02-09T18:34:30.431Z,16.23
2023-02-09T18:36:57.579Z,18.48
2023-02-09T18:39:24.770Z,17.27
2023-02-09T18:41:55.103Z,19.05
2023-02-09T18:44:29.347Z,16.80
2023-02-09T18:46:57.329Z,18.27
2023-02-09T18:49:24.536Z,15.35
2023-02-09T18:51:52.288Z,18.83
2023-02-09T18:54:19.517Z,19.15
2023-02-09T18:56:46.684Z,16.30
2023-02-09T18:59:14.005Z,19.60
2023-02-09T19:01:41.303Z,17.88
2023-02-09T19:04:08.527Z,20.33
2023-02-09T19:06:36.130Z,16.75
2023-02-09T19:09:03.411Z,19.75
2023-02-09T19:11:30.694Z,21.42
2023-02-09T19:14:16.431Z,18.00
2023-02-09T19:16:43.608Z,18.20
2023-02-09T19:19:12.476Z,18.75
2023-02-09T19:21:39.702Z,21.77
2023-02-09T19:24:06.992Z,18.85
2023-02-09T19:26:34.164Z,19.27
2023-02-09T19:29:01.375Z,16.10
2023-02-09T19:31:28.599Z,17.88
2023-02-09T19:33:58.607Z,16.77
2023-02-09T19:36:27.901Z,20.63
2023-02-09T19:38:55.725Z,19.63
2023-02-09T19:41:23.694Z,19.17
2023-02-09T19:43:54.345Z,19.55
2023-02-09T19:46:21.631Z,19.05
2023-02-09T19:48:48.824Z,20.15
2023-02-09T19:51:15.975Z,19.88
2023-02-09T19:53:43.224Z,21.38
2023-02-09T19:56:14.316Z,17.60
2023-02-09T19:58:41.507Z,22.00
2023-02-09T20:01:09.197Z,22.02
2023-02-09T20:03:36.772Z,31.70
2023-02-09T20:06:11.069Z,22.93
2023-02-09T20:08:38.334Z,26.27
2023-02-09T20:11:06.389Z,26.20
2023-02-09T20:13:33.568Z,29.70
2023-02-09T20:16:00.745Z,28.38
2023-02-09T20:18:27.891Z,39.42
2023-02-09T20:20:55.138Z,26.77
2023-02-09T20:23:23.782Z,32.00
2023-02-09T20:25:51.024Z,35.10
2023-02-09T20:28:18.298Z,29.27
2023-02-09T20:30:46.235Z,27.48
2023-02-09T20:33:14.524Z,27.60
2023-02-09T20:35:42.012Z,28.48
2023-02-09T20:38:10.252Z,35.65
2023-02-09T20:40:37.647Z,30.70
2023-02-09T20:43:23.205Z,34.55
2023-02-09T20:46:09.106Z,32.03
2023-02-09T20:48:36.330Z,33.60
2023-02-09T20:51:04.785Z,29.15
2023-02-09T20:53:32.716Z,26.03
2023-02-09T20:56:00.014Z,28.27
2023-02-09T20:58:29.637Z,29.20
2023-02-09T21:00:57.119Z,28.08
2023-02-09T21:03:24.589Z,26.90
2023-02-09T21:05:52.034Z,27.48
2023-02-09T21:08:20.391Z,25.48
2023-02-09T21:10:48.174Z,31.08
2023-02-09T21:13:15.644Z,25.40
2023-02-09T21:15:45.193Z,30.58
2023-02-09T21:18:12.643Z,26.90
2023-02-09T21:20:40.736Z,28.77
2023-02-09T21:23:09.442Z,27.30
2023-02-09T21:25:37.146Z,32.15
2023-02-09T21:28:05.896Z,29.40
2023-02-09T21:30:33.594Z,24.50
2023-02-09T21:33:00.851Z,25.70
2023-02-09T21:35:28.545Z,25.52
2023-02-09T21:37:56.627Z,29.63
2023-02-09T21:40:24.856Z,26.67
2023-02-09T21:42:52.785Z,27.13
2023-02-09T21:45:20.066Z,29.40
2023-02-09T21:47:47.311Z,28.20
2023-02-09T21:50:14.750Z,35.72
2023-02-09T21:52:41.992Z,31.38
2023-02-09T21:55:09.385Z,30.42
2023-02-09T21:57:39.379Z,31.02
2023-02-09T22:00:09.152Z,38.10
2023-02-09T22:02:36.373Z,35.95
2023-02-09T22:05:03.764Z,30.15
2023-02-09T22:07:31.053Z,32.60
2023-02-09T22:09:58.256Z,34.67
2023-02-09T22:12:25.596Z,38.60
2023-02-09T22:14:52.824Z,36.42
2023-02-09T22:17:19.960Z,35.67
2023-02-09T22:19:47.190Z,37.88
2023-02-09T22:22:14.367Z,35.08
2023-02-09T22:24:41.581Z,34.63
2023-02-09T22:27:08.857Z,37.20
2023-02-09T22:29:36.122Z,38.40
2023-02-09T22:32:03.378Z,38.78
2023-02-09T22:34:30.556Z,39.28
2023-02-09T22:36:57.732Z,42.63
2023-02-09T22:39:24.907Z,40.13
2023-02-09T22:41:52.061Z,44.30
2023-02-09T22:44:19.352Z,37.13
2023-02-09T22:46:46.592Z,38.38
2023-02-09T22:49:18.152Z,46.47
2023-02-09T22:51:45.574Z,39.70
2023-02-09T22:54:16.330Z,46.60
2023-02-09T22:56:43.502Z,48.00
2023-02-09T22:59:11.468Z,41.85
2023-02-09T23:01:38.717Z,50.28
2023-02-09T23:04:06.120Z,41.97
2023-02-09T23:06:33.305Z,42.65
2023-02-09T23:09:01.919Z,44.70
2023-02-09T23:11:29.475Z,42.42
2023-02-09T23:14:09.623Z,43.17
2023-02-09T23:16:37.516Z,43.35
2023-02-09T23:19:05.522Z,46.17
2023-02-09T23:21:33.608Z,48.45
2023-02-09T23:24:00.769Z,46.28
2023-02-09T23:26:28.236Z,45.65
2023-02-09T23:28:57.134Z,45.25
2023-02-09T23:31:24.492Z,40.45
2023-02-09T23:33:51.708Z,43.63
2023-02-09T23:36:19.844Z,44.78
2023-02-09T23:38:47.110Z,48.07
2023-02-09T23:41:15.149Z,43.40
2023-02-09T23:43:42.425Z,41.97
2023-02-09T23:46:11.748Z,39.42
2023-02-09T23:48:39.045Z,47.87
2023-02-09T23:51:07.112Z,40.57
2023-02-09T23:53:34.454Z,45.33
2023-02-09T23:56:03.850Z,40.78
2023-02-09T23:58:31.977Z,40.63
